sensor_id;sensor_type;location;lat;lon;timestamp;P1;durP1;ratioP1;P2;durP2;ratioP2
16743;SDS011;71724;-33.900;151.182;2023-07-31T00:01:32;1.70;;;0.60;;
16743;SDS011;71724;-33.900;151.182;2023-07-31T00:03:59;0.63;;;0.50;;
16743;SDS011;71724;-33.900;151.182;2023-07-31T00:06:26;1.45;;;0.60;;
16743;SDS011;71724;-33.900;151.182;2023-07-31T00:08:54;2.28;;;0.65;;
16743;SDS011;71724;-33.900;151.182;2023-07-31T00:11:21;0.65;;;0.57;;
16743;SDS011;71724;-33.900;151.182;2023-07-31T00:13:48;1.33;;;0.65;;
16743;SDS011;71724;-33.900;151.182;2023-07-31T00:16:16;1.73;;;0.70;;
16743;SDS011;71724;-33.900;151.182;2023-07-31T00:18:43;2.63;;;0.90;;
16743;SDS011;71724;-33.900;151.182;2023-07-31T00:21:11;5.05;;;1.05;;
16743;SDS011;71724;-33.900;151.182;2023-07-31T00:23:38;6.18;;;0.82;;
16743;SDS011;71724;-33.900;151.182;2023-07-31T00:26:05;1.75;;;0.70;;
16743;SDS011;71724;-33.900;151.182;2023-07-31T00:28:33;3.20;;;0.80;;
16743;SDS011;71724;-33.900;151.182;2023-07-31T00:33:31;4.40;;;1.80;;
16743;SDS011;71724;-33.900;151.182;2023-07-31T00:38:35;2.42;;;0.77;;
16743;SDS011;71724;-33.900;151.182;2023-07-31T00:41:02;3.03;;;1.15;;
16743;SDS011;71724;-33.900;151.182;2023-07-31T00:43:30;2.00;;;0.90;;
16743;SDS011;71724;-33.900;151.182;2023-07-31T00:45:57;1.08;;;0.70;;
16743;SDS011;71724;-33.900;151.182;2023-07-31T00:48:25;1.63;;;0.80;;
16743;SDS011;71724;-33.900;151.182;2023-07-31T00:50:53;1.85;;;0.70;;
16743;SDS011;71724;-33.900;151.182;2023-07-31T00:53:20;3.17;;;0.60;;
16743;SDS011;71724;-33.900;151.182;2023-07-31T00:55:51;2.03;;;1.00;;
16743;SDS011;71724;-33.900;151.182;2023-07-31T00:58:19;2.72;;;0.85;;
16743;SDS011;71724;-33.900;151.182;2023-07-31T01:00:47;1.15;;;0.43;;
16743;SDS011;71724;-33.900;151.182;2023-07-31T01:03:16;2.55;;;0.70;;
16743;SDS011;71724;-33.900;151.182;2023-07-31T01:05:50;0.98;;;0.68;;
16743;SDS011;71724;-33.900;151.182;2023-07-31T01:11:19;2.25;;;0.88;;
16743;SDS011;71724;-33.900;151.182;2023-07-31T01:13:51;0.55;;;0.50;;
16743;SDS011;71724;-33.900;151.182;2023-07-31T01:16:20;2.05;;;0.80;;
16743;SDS011;71724;-33.900;151.182;2023-07-31T01:18:47;1.60;;;0.77;;
16743;SDS011;71724;-33.900;151.182;2023-07-31T01:27:30;2.13;;;0.60;;
16743;SDS011;71724;-33.900;151.182;2023-07-31T01:30:08;1.20;;;0.50;;
16743;SDS011;71724;-33.900;151.182;2023-07-31T01:32:47;2.97;;;0.88;;
16743;SDS011;71724;-33.900;151.182;2023-07-31T01:35:15;1.25;;;0.70;;
16743;SDS011;71724;-33.900;151.182;2023-07-31T01:37:43;6.13;;;1.20;;
16743;SDS011;71724;-33.900;151.182;2023-07-31T01:40:11;1.63;;;0.75;;
16743;SDS011;71724;-33.900;151.182;2023-07-31T01:42:39;1.95;;;0.70;;
16743;SDS011;71724;-33.900;151.182;2023-07-31T01:45:06;1.55;;;0.70;;
16743;SDS011;71724;-33.900;151.182;2023-07-31T01:47:34;6.32;;;4.90;;
16743;SDS011;71724;-33.900;151.182;2023-07-31T01:50:01;2.35;;;0.68;;
16743;SDS011;71724;-33.900;151.182;2023-07-31T01:52:29;0.88;;;0.60;;
16743;SDS011;71724;-33.900;151.182;2023-07-31T01:54:56;2.05;;;0.70;;
16743;SDS011;71724;-33.900;151.182;2023-07-31T01:57:23;8.27;;;0.90;;
16743;SDS011;71724;-33.900;151.182;2023-07-31T01:59:51;2.80;;;0.63;;
16743;SDS011;71724;-33.900;151.182;2023-07-31T02:02:19;6.22;;;0.75;;
16743;SDS011;71724;-33.900;151.182;2023-07-31T02:04:48;3.08;;;0.90;;
16743;SDS011;71724;-33.900;151.182;2023-07-31T02:07:16;0.65;;;0.55;;
16743;SDS011;71724;-33.900;151.182;2023-07-31T02:09:43;1.38;;;0.70;;
16743;SDS011;71724;-33.900;151.182;2023-07-31T02:12:12;1.75;;;0.70;;
16743;SDS011;71724;-33.900;151.182;2023-07-31T02:14:40;3.55;;;0.77;;
16743;SDS011;71724;-33.900;151.182;2023-07-31T02:17:08;2.50;;;0.80;;
16743;SDS011;71724;-33.900;151.182;2023-07-31T02:19:36;5.97;;;0.68;;
16743;SDS011;71724;-33.900;151.182;2023-07-31T02:22:03;1.67;;;0.70;;
16743;SDS011;71724;-33.900;151.182;2023-07-31T02:24:31;1.10;;;0.60;;
16743;SDS011;71724;-33.900;151.182;2023-07-31T02:26:58;1.45;;;0.55;;
16743;SDS011;71724;-33.900;151.182;2023-07-31T02:29:25;1.63;;;0.70;;
16743;SDS011;71724;-33.900;151.182;2023-07-31T02:31:53;1.23;;;0.68;;
16743;SDS011;71724;-33.900;151.182;2023-07-31T02:34:20;2.70;;;0.70;;
16743;SDS011;71724;-33.900;151.182;2023-07-31T02:36:48;1.05;;;0.65;;
16743;SDS011;71724;-33.900;151.182;2023-07-31T02:39:16;0.70;;;0.50;;
16743;SDS011;71724;-33.900;151.182;2023-07-31T02:41:44;0.73;;;0.50;;
16743;SDS011;71724;-33.900;151.182;2023-07-31T02:44:14;1.40;;;0.68;;
16743;SDS011;71724;-33.900;151.182;2023-07-31T02:46:43;0.65;;;0.60;;
16743;SDS011;71724;-33.900;151.182;2023-07-31T02:49:10;1.63;;;0.60;;
16743;SDS011;71724;-33.900;151.182;2023-07-31T02:51:37;1.40;;;0.70;;
16743;SDS011;71724;-33.900;151.182;2023-07-31T02:54:05;1.60;;;0.75;;
16743;SDS011;71724;-33.900;151.182;2023-07-31T02:56:32;0.75;;;0.50;;
16743;SDS011;71724;-33.900;151.182;2023-07-31T02:58:59;4.63;;;0.93;;
16743;SDS011;71724;-33.900;151.182;2023-07-31T03:01:27;3.50;;;1.13;;
16743;SDS011;71724;-33.900;151.182;2023-07-31T03:03:54;2.40;;;0.70;;
16743;SDS011;71724;-33.900;151.182;2023-07-31T03:06:22;1.95;;;0.80;;
16743;SDS011;71724;-33.900;151.182;2023-07-31T03:08:50;0.98;;;0.70;;
16743;SDS011;71724;-33.900;151.182;2023-07-31T03:11:17;3.03;;;0.90;;
16743;SDS011;71724;-33.900;151.182;2023-07-31T03:13:44;4.28;;;0.88;;
16743;SDS011;71724;-33.900;151.182;2023-07-31T03:16:14;1.35;;;0.63;;
16743;SDS011;71724;-33.900;151.182;2023-07-31T03:18:42;3.25;;;0.90;;
16743;SDS011;71724;-33.900;151.182;2023-07-31T03:21:09;1.60;;;0.70;;
16743;SDS011;71724;-33.900;151.182;2023-07-31T03:23:36;5.35;;;0.80;;
16743;SDS011;71724;-33.900;151.182;2023-07-31T03:26:05;3.17;;;0.90;;
16743;SDS011;71724;-33.900;151.182;2023-07-31T03:28:33;1.63;;;0.77;;
16743;SDS011;71724;-33.900;151.182;2023-07-31T03:31:01;2.33;;;0.95;;
16743;SDS011;71724;-33.900;151.182;2023-07-31T03:33:28;1.30;;;0.73;;
16743;SDS011;71724;-33.900;151.182;2023-07-31T03:35:56;2.03;;;0.82;;
16743;SDS011;71724;-33.900;151.182;2023-07-31T03:38:23;1.90;;;0.75;;
16743;SDS011;71724;-33.900;151.182;2023-07-31T03:40:52;0.73;;;0.50;;
16743;SDS011;71724;-33.900;151.182;2023-07-31T03:43:21;3.80;;;0.80;;
16743;SDS011;71724;-33.900;151.182;2023-07-31T03:45:48;1.70;;;0.85;;
16743;SDS011;71724;-33.900;151.182;2023-07-31T03:48:15;4.38;;;0.77;;
16743;SDS011;71724;-33.900;151.182;2023-07-31T03:50:43;2.22;;;0.80;;
16743;SDS011;71724;-33.900;151.182;2023-07-31T03:53:10;1.20;;;0.73;;
16743;SDS011;71724;-33.900;151.182;2023-07-31T03:55:38;2.00;;;0.77;;
16743;SDS011;71724;-33.900;151.182;2023-07-31T03:58:05;1.23;;;0.60;;
16743;SDS011;71724;-33.900;151.182;2023-07-31T04:00:32;3.30;;;0.70;;
16743;SDS011;71724;-33.900;151.182;2023-07-31T04:03:00;1.45;;;0.80;;
16743;SDS011;71724;-33.900;151.182;2023-07-31T04:05:29;1.20;;;0.73;;
16743;SDS011;71724;-33.900;151.182;2023-07-31T04:07:58;3.65;;;0.70;;
16743;SDS011;71724;-33.900;151.182;2023-07-31T04:10:25;2.60;;;0.80;;
16743;SDS011;71724;-33.900;151.182;2023-07-31T04:12:53;4.97;;;1.02;;
16743;SDS011;71724;-33.900;151.182;2023-07-31T04:15:20;4.43;;;1.08;;
16743;SDS011;71724;-33.900;151.182;2023-07-31T04:17:49;2.25;;;0.80;;
16743;SDS011;71724;-33.900;151.182;2023-07-31T04:20:17;1.98;;;0.70;;
16743;SDS011;71724;-33.900;151.182;2023-07-31T04:22:45;1.10;;;0.80;;
16743;SDS011;71724;-33.900;151.182;2023-07-31T04:25:18;1.65;;;0.75;;
16743;SDS011;71724;-33.900;151.182;2023-07-31T04:27:45;6.35;;;0.70;;
16743;SDS011;71724;-33.900;151.182;2023-07-31T04:30:13;1.35;;;0.80;;
16743;SDS011;71724;-33.900;151.182;2023-07-31T04:32:40;0.60;;;0.60;;
16743;SDS011;71724;-33.900;151.182;2023-07-31T04:35:10;5.38;;;0.98;;
16743;SDS011;71724;-33.900;151.182;2023-07-31T04:37:39;2.55;;;0.70;;
16743;SDS011;71724;-33.900;151.182;2023-07-31T04:40:07;2.88;;;0.80;;
16743;SDS011;71724;-33.900;151.182;2023-07-31T04:42:34;2.33;;;0.70;;
16743;SDS011;71724;-33.900;151.182;2023-07-31T04:45:02;2.50;;;0.80;;
16743;SDS011;71724;-33.900;151.182;2023-07-31T04:47:29;1.00;;;0.63;;
16743;SDS011;71724;-33.900;151.182;2023-07-31T04:49:57;2.58;;;0.75;;
16743;SDS011;71724;-33.900;151.182;2023-07-31T04:52:24;3.08;;;0.77;;
16743;SDS011;71724;-33.900;151.182;2023-07-31T04:54:52;1.38;;;0.77;;
16743;SDS011;71724;-33.900;151.182;2023-07-31T04:57:19;1.23;;;0.80;;
16743;SDS011;71724;-33.900;151.182;2023-07-31T04:59:46;4.15;;;0.75;;
16743;SDS011;71724;-33.900;151.182;2023-07-31T05:02:14;1.15;;;0.82;;
16743;SDS011;71724;-33.900;151.182;2023-07-31T05:04:41;1.52;;;1.05;;
16743;SDS011;71724;-33.900;151.182;2023-07-31T05:07:09;3.30;;;0.85;;
16743;SDS011;71724;-33.900;151.182;2023-07-31T05:09:36;2.50;;;0.82;;
16743;SDS011;71724;-33.900;151.182;2023-07-31T05:12:07;0.93;;;0.70;;
16743;SDS011;71724;-33.900;151.182;2023-07-31T05:14:35;3.08;;;0.90;;
16743;SDS011;71724;-33.900;151.182;2023-07-31T05:17:02;0.95;;;0.60;;
16743;SDS011;71724;-33.900;151.182;2023-07-31T05:19:30;3.63;;;0.90;;
16743;SDS011;71724;-33.900;151.182;2023-07-31T05:22:00;3.13;;;0.82;;
16743;SDS011;71724;-33.900;151.182;2023-07-31T05:24:27;1.95;;;1.00;;
16743;SDS011;71724;-33.900;151.182;2023-07-31T05:26:55;8.02;;;4.63;;
16743;SDS011;71724;-33.900;151.182;2023-07-31T05:29:22;4.78;;;1.70;;
16743;SDS011;71724;-33.900;151.182;2023-07-31T05:31:50;3.05;;;1.00;;
16743;SDS011;71724;-33.900;151.182;2023-07-31T05:34:18;1.20;;;0.70;;
16743;SDS011;71724;-33.900;151.182;2023-07-31T05:36:46;3.65;;;1.05;;
16743;SDS011;71724;-33.900;151.182;2023-07-31T05:39:13;1.38;;;0.65;;
16743;SDS011;71724;-33.900;151.182;2023-07-31T05:41:41;1.30;;;0.85;;
16743;SDS011;71724;-33.900;151.182;2023-07-31T05:44:08;4.60;;;0.98;;
16743;SDS011;71724;-33.900;151.182;2023-07-31T05:46:35;1.27;;;0.77;;
16743;SDS011;71724;-33.900;151.182;2023-07-31T05:49:03;5.60;;;0.90;;
16743;SDS011;71724;-33.900;151.182;2023-07-31T05:51:30;0.57;;;0.57;;
16743;SDS011;71724;-33.900;151.182;2023-07-31T05:53:57;2.47;;;0.80;;
16743;SDS011;71724;-33.900;151.182;2023-07-31T05:56:25;3.33;;;1.00;;
16743;SDS011;71724;-33.900;151.182;2023-07-31T05:58:52;1.35;;;0.70;;
16743;SDS011;71724;-33.900;151.182;2023-07-31T06:01:22;2.50;;;0.70;;
16743;SDS011;71724;-33.900;151.182;2023-07-31T06:03:50;3.00;;;0.70;;
16743;SDS011;71724;-33.900;151.182;2023-07-31T06:06:17;2.95;;;0.70;;
16743;SDS011;71724;-33.900;151.182;2023-07-31T06:08:44;1.95;;;0.88;;
16743;SDS011;71724;-33.900;151.182;2023-07-31T06:11:15;2.17;;;0.70;;
16743;SDS011;71724;-33.900;151.182;2023-07-31T06:13:42;1.25;;;0.70;;
16743;SDS011;71724;-33.900;151.182;2023-07-31T06:16:10;0.93;;;0.70;;
16743;SDS011;71724;-33.900;151.182;2023-07-31T06:18:38;2.17;;;1.10;;
16743;SDS011;71724;-33.900;151.182;2023-07-31T06:21:06;2.45;;;0.82;;
16743;SDS011;71724;-33.900;151.182;2023-07-31T06:23:34;3.88;;;0.98;;
16743;SDS011;71724;-33.900;151.182;2023-07-31T06:26:02;1.80;;;1.00;;
16743;SDS011;71724;-33.900;151.182;2023-07-31T06:28:29;3.30;;;1.00;;
16743;SDS011;71724;-33.900;151.182;2023-07-31T06:30:58;1.50;;;0.88;;
16743;SDS011;71724;-33.900;151.182;2023-07-31T06:33:25;5.13;;;1.13;;
16743;SDS011;71724;-33.900;151.182;2023-07-31T06:35:53;1.20;;;0.93;;
16743;SDS011;71724;-33.900;151.182;2023-07-31T06:38:24;3.00;;;1.00;;
16743;SDS011;71724;-33.900;151.182;2023-07-31T06:40:53;2.40;;;0.93;;
16743;SDS011;71724;-33.900;151.182;2023-07-31T06:43:21;4.03;;;1.10;;
16743;SDS011;71724;-33.900;151.182;2023-07-31T06:45:48;2.30;;;1.00;;
16743;SDS011;71724;-33.900;151.182;2023-07-31T06:48:17;0.80;;;0.77;;
16743;SDS011;71724;-33.900;151.182;2023-07-31T06:50:44;2.95;;;1.30;;
16743;SDS011;71724;-33.900;151.182;2023-07-31T06:53:12;1.92;;;1.00;;
16743;SDS011;71724;-33.900;151.182;2023-07-31T06:55:39;2.58;;;1.10;;
16743;SDS011;71724;-33.900;151.182;2023-07-31T06:58:06;1.60;;;1.00;;
16743;SDS011;71724;-33.900;151.182;2023-07-31T07:00:34;4.82;;;1.25;;
16743;SDS011;71724;-33.900;151.182;2023-07-31T07:03:01;4.28;;;1.10;;
16743;SDS011;71724;-33.900;151.182;2023-07-31T07:05:29;2.65;;;1.00;;
16743;SDS011;71724;-33.900;151.182;2023-07-31T07:07:56;5.43;;;1.40;;
16743;SDS011;71724;-33.900;151.182;2023-07-31T07:10:23;5.45;;;1.17;;
16743;SDS011;71724;-33.900;151.182;2023-07-31T07:12:51;4.53;;;1.30;;
16743;SDS011;71724;-33.900;151.182;2023-07-31T07:15:19;5.28;;;1.30;;
16743;SDS011;71724;-33.900;151.182;2023-07-31T07:17:46;7.40;;;1.42;;
16743;SDS011;71724;-33.900;151.182;2023-07-31T07:20:13;3.00;;;1.60;;
16743;SDS011;71724;-33.900;151.182;2023-07-31T07:22:41;4.28;;;1.75;;
16743;SDS011;71724;-33.900;151.182;2023-07-31T07:25:11;5.65;;;2.47;;
16743;SDS011;71724;-33.900;151.182;2023-07-31T07:27:39;5.35;;;2.00;;
16743;SDS011;71724;-33.900;151.182;2023-07-31T07:30:06;3.90;;;1.80;;
16743;SDS011;71724;-33.900;151.182;2023-07-31T07:32:34;4.28;;;1.70;;
16743;SDS011;71724;-33.900;151.182;2023-07-31T07:35:01;6.57;;;1.92;;
16743;SDS011;71724;-33.900;151.182;2023-07-31T07:37:29;3.85;;;2.00;;
16743;SDS011;71724;-33.900;151.182;2023-07-31T07:40:01;4.78;;;1.95;;
16743;SDS011;71724;-33.900;151.182;2023-07-31T07:42:29;4.95;;;2.22;;
16743;SDS011;71724;-33.900;151.182;2023-07-31T07:44:56;3.78;;;1.98;;
16743;SDS011;71724;-33.900;151.182;2023-07-31T07:47:23;8.32;;;2.30;;
16743;SDS011;71724;-33.900;151.182;2023-07-31T07:49:51;2.78;;;1.88;;
16743;SDS011;71724;-33.900;151.182;2023-07-31T07:52:18;3.22;;;1.65;;
16743;SDS011;71724;-33.900;151.182;2023-07-31T07:54:45;3.20;;;1.60;;
16743;SDS011;71724;-33.900;151.182;2023-07-31T07:57:13;5.57;;;2.13;;
16743;SDS011;71724;-33.900;151.182;2023-07-31T07:59:40;3.22;;;1.80;;
16743;SDS011;71724;-33.900;151.182;2023-07-31T08:02:08;4.97;;;2.20;;
16743;SDS011;71724;-33.900;151.182;2023-07-31T08:04:35;5.13;;;2.38;;
16743;SDS011;71724;-33.900;151.182;2023-07-31T08:07:03;6.68;;;3.10;;
16743;SDS011;71724;-33.900;151.182;2023-07-31T08:09:30;6.80;;;2.97;;
16743;SDS011;71724;-33.900;151.182;2023-07-31T08:11:57;8.23;;;3.65;;
16743;SDS011;71724;-33.900;151.182;2023-07-31T08:14:28;7.97;;;3.72;;
16743;SDS011;71724;-33.900;151.182;2023-07-31T08:16:56;5.60;;;3.40;;
16743;SDS011;71724;-33.900;151.182;2023-07-31T08:19:23;12.57;;;3.72;;
16743;SDS011;71724;-33.900;151.182;2023-07-31T08:21:57;9.75;;;3.53;;
16743;SDS011;71724;-33.900;151.182;2023-07-31T08:24:26;7.07;;;3.40;;
16743;SDS011;71724;-33.900;151.182;2023-07-31T08:26:53;6.45;;;3.15;;
16743;SDS011;71724;-33.900;151.182;2023-07-31T08:29:21;5.05;;;2.80;;
16743;SDS011;71724;-33.900;151.182;2023-07-31T08:31:49;4.43;;;2.47;;
16743;SDS011;71724;-33.900;151.182;2023-07-31T08:34:17;5.32;;;2.75;;
16743;SDS011;71724;-33.900;151.182;2023-07-31T08:36:46;4.55;;;2.35;;
16743;SDS011;71724;-33.900;151.182;2023-07-31T08:39:13;7.65;;;2.53;;
16743;SDS011;71724;-33.900;151.182;2023-07-31T08:41:40;5.35;;;2.47;;
16743;SDS011;71724;-33.900;151.182;2023-07-31T08:44:08;5.75;;;2.95;;
16743;SDS011;71724;-33.900;151.182;2023-07-31T08:46:37;9.02;;;3.38;;
16743;SDS011;71724;-33.900;151.182;2023-07-31T08:49:05;6.85;;;3.72;;
16743;SDS011;71724;-33.900;151.182;2023-07-31T08:51:35;9.88;;;4.32;;
16743;SDS011;71724;-33.900;151.182;2023-07-31T08:54:03;9.50;;;3.50;;
16743;SDS011;71724;-33.900;151.182;2023-07-31T08:56:31;9.95;;;5.32;;
16743;SDS011;71724;-33.900;151.182;2023-07-31T08:59:02;18.77;;;9.60;;
16743;SDS011;71724;-33.900;151.182;2023-07-31T09:01:31;16.40;;;10.10;;
16743;SDS011;71724;-33.900;151.182;2023-07-31T09:04:04;17.23;;;10.48;;
16743;SDS011;71724;-33.900;151.182;2023-07-31T09:06:31;15.10;;;10.02;;
16743;SDS011;71724;-33.900;151.182;2023-07-31T09:08:59;10.32;;;6.88;;
16743;SDS011;71724;-33.900;151.182;2023-07-31T09:11:27;11.50;;;6.40;;
16743;SDS011;71724;-33.900;151.182;2023-07-31T09:13:56;11.98;;;4.80;;
16743;SDS011;71724;-33.900;151.182;2023-07-31T09:16:30;6.40;;;3.72;;
16743;SDS011;71724;-33.900;151.182;2023-07-31T09:18:59;9.68;;;3.78;;
16743;SDS011;71724;-33.900;151.182;2023-07-31T09:21:30;5.43;;;3.38;;
16743;SDS011;71724;-33.900;151.182;2023-07-31T09:23:58;9.00;;;3.95;;
16743;SDS011;71724;-33.900;151.182;2023-07-31T09:26:29;6.38;;;3.42;;
16743;SDS011;71724;-33.900;151.182;2023-07-31T09:29:06;5.70;;;3.67;;
16743;SDS011;71724;-33.900;151.182;2023-07-31T09:31:45;9.43;;;4.13;;
16743;SDS011;71724;-33.900;151.182;2023-07-31T09:34:13;7.15;;;4.53;;
16743;SDS011;71724;-33.900;151.182;2023-07-31T09:36:47;7.43;;;4.75;;
16743;SDS011;71724;-33.900;151.182;2023-07-31T09:39:16;7.70;;;4.72;;
16743;SDS011;71724;-33.900;151.182;2023-07-31T09:41:47;11.50;;;5.65;;
16743;SDS011;71724;-33.900;151.182;2023-07-31T09:44:20;9.82;;;5.85;;
16743;SDS011;71724;-33.900;151.182;2023-07-31T09:46:48;10.82;;;6.10;;
16743;SDS011;71724;-33.900;151.182;2023-07-31T09:49:16;11.43;;;6.30;;
16743;SDS011;71724;-33.900;151.182;2023-07-31T09:51:43;11.02;;;5.88;;
16743;SDS011;71724;-33.900;151.182;2023-07-31T09:54:14;8.27;;;5.25;;
16743;SDS011;71724;-33.900;151.182;2023-07-31T09:56:46;12.57;;;4.75;;
16743;SDS011;71724;-33.900;151.182;2023-07-31T09:59:15;11.48;;;5.40;;
16743;SDS011;71724;-33.900;151.182;2023-07-31T10:01:46;11.23;;;5.75;;
16743;SDS011;71724;-33.900;151.182;2023-07-31T10:04:15;11.48;;;6.05;;
16743;SDS011;71724;-33.900;151.182;2023-07-31T10:06:51;13.15;;;6.70;;
16743;SDS011;71724;-33.900;151.182;2023-07-31T10:09:21;15.50;;;7.32;;
16743;SDS011;71724;-33.900;151.182;2023-07-31T10:12:04;12.15;;;6.57;;
16743;SDS011;71724;-33.900;151.182;2023-07-31T10:14:38;13.45;;;6.90;;
16743;SDS011;71724;-33.900;151.182;2023-07-31T10:17:07;17.05;;;7.63;;
16743;SDS011;71724;-33.900;151.182;2023-07-31T10:19:35;20.23;;;7.65;;
16743;SDS011;71724;-33.900;151.182;2023-07-31T10:22:04;17.85;;;8.38;;
16743;SDS011;71724;-33.900;151.182;2023-07-31T10:24:32;15.23;;;7.72;;
16743;SDS011;71724;-33.900;151.182;2023-07-31T10:27:00;15.52;;;7.40;;
16743;SDS011;71724;-33.900;151.182;2023-07-31T10:29:29;14.30;;;7.97;;
16743;SDS011;71724;-33.900;151.182;2023-07-31T10:31:57;21.55;;;8.90;;
16743;SDS011;71724;-33.900;151.182;2023-07-31T10:34:26;17.60;;;8.88;;
16743;SDS011;71724;-33.900;151.182;2023-07-31T10:40:37;15.52;;;7.38;;
16743;SDS011;71724;-33.900;151.182;2023-07-31T10:42:50;16.35;;;7.80;;
16743;SDS011;71724;-33.900;151.182;2023-07-31T10:50:55;15.88;;;6.00;;
16743;SDS011;71724;-33.900;151.182;2023-07-31T10:53:23;14.57;;;7.10;;
16743;SDS011;71724;-33.900;151.182;2023-07-31T10:55:51;11.10;;;6.13;;
16743;SDS011;71724;-33.900;151.182;2023-07-31T10:58:19;13.60;;;6.50;;
16743;SDS011;71724;-33.900;151.182;2023-07-31T11:00:47;16.38;;;5.90;;
16743;SDS011;71724;-33.900;151.182;2023-07-31T11:03:15;10.23;;;5.07;;
16743;SDS011;71724;-33.900;151.182;2023-07-31T11:08:29;9.23;;;3.85;;
16743;SDS011;71724;-33.900;151.182;2023-07-31T11:13:31;5.63;;;2.45;;
16743;SDS011;71724;-33.900;151.182;2023-07-31T11:16:00;5.88;;;3.05;;
16743;SDS011;71724;-33.900;151.182;2023-07-31T11:18:27;4.03;;;2.75;;
16743;SDS011;71724;-33.900;151.182;2023-07-31T11:20:55;5.65;;;2.72;;
16743;SDS011;71724;-33.900;151.182;2023-07-31T11:23:23;8.40;;;3.50;;
16743;SDS011;71724;-33.900;151.182;2023-07-31T11:25:51;3.97;;;1.80;;
16743;SDS011;71724;-33.900;151.182;2023-07-31T11:28:19;4.75;;;2.40;;
16743;SDS011;71724;-33.900;151.182;2023-07-31T11:30:46;4.68;;;2.80;;
16743;SDS011;71724;-33.900;151.182;2023-07-31T11:33:14;2.60;;;1.85;;
16743;SDS011;71724;-33.900;151.182;2023-07-31T11:38:31;3.97;;;2.08;;
16743;SDS011;71724;-33.900;151.182;2023-07-31T11:41:01;2.28;;;1.98;;
16743;SDS011;71724;-33.900;151.182;2023-07-31T11:43:31;5.20;;;1.83;;
16743;SDS011;71724;-33.900;151.182;2023-07-31T11:46:00;4.55;;;2.05;;
16743;SDS011;71724;-33.900;151.182;2023-07-31T11:48:34;4.43;;;1.85;;
16743;SDS011;71724;-33.900;151.182;2023-07-31T11:51:06;5.35;;;2.45;;
16743;SDS011;71724;-33.900;151.182;2023-07-31T11:56:16;4.40;;;2.10;;
16743;SDS011;71724;-33.900;151.182;2023-07-31T11:58:49;3.95;;;2.10;;
16743;SDS011;71724;-33.900;151.182;2023-07-31T12:01:20;2.90;;;1.63;;
16743;SDS011;71724;-33.900;151.182;2023-07-31T12:03:49;2.45;;;1.45;;
16743;SDS011;71724;-33.900;151.182;2023-07-31T12:06:17;3.35;;;1.48;;
16743;SDS011;71724;-33.900;151.182;2023-07-31T12:08:46;4.35;;;1.38;;
16743;SDS011;71724;-33.900;151.182;2023-07-31T12:11:14;3.10;;;1.50;;
16743;SDS011;71724;-33.900;151.182;2023-07-31T12:13:43;2.55;;;1.70;;
16743;SDS011;71724;-33.900;151.182;2023-07-31T12:16:10;2.63;;;1.40;;
16743;SDS011;71724;-33.900;151.182;2023-07-31T12:18:38;2.72;;;1.40;;
16743;SDS011;71724;-33.900;151.182;2023-07-31T12:21:06;5.95;;;1.60;;
16743;SDS011;71724;-33.900;151.182;2023-07-31T12:23:37;3.60;;;1.20;;
16743;SDS011;71724;-33.900;151.182;2023-07-31T12:28:46;3.03;;;1.13;;
16743;SDS011;71724;-33.900;151.182;2023-07-31T12:31:16;4.30;;;1.30;;
16743;SDS011;71724;-33.900;151.182;2023-07-31T12:33:45;2.63;;;1.30;;
16743;SDS011;71724;-33.900;151.182;2023-07-31T12:41:19;3.67;;;1.45;;
16743;SDS011;71724;-33.900;151.182;2023-07-31T12:43:46;3.80;;;1.85;;
16743;SDS011;71724;-33.900;151.182;2023-07-31T12:46:14;5.13;;;2.60;;
16743;SDS011;71724;-33.900;151.182;2023-07-31T12:48:42;5.45;;;2.33;;
16743;SDS011;71724;-33.900;151.182;2023-07-31T12:51:10;5.05;;;2.22;;
16743;SDS011;71724;-33.900;151.182;2023-07-31T12:53:37;5.32;;;2.65;;
16743;SDS011;71724;-33.900;151.182;2023-07-31T12:56:05;5.00;;;2.20;;
16743;SDS011;71724;-33.900;151.182;2023-07-31T12:58:33;4.82;;;2.20;;
16743;SDS011;71724;-33.900;151.182;2023-07-31T13:01:00;5.13;;;2.20;;
16743;SDS011;71724;-33.900;151.182;2023-07-31T13:03:27;4.70;;;1.65;;
16743;SDS011;71724;-33.900;151.182;2023-07-31T13:05:55;6.20;;;2.75;;
16743;SDS011;71724;-33.900;151.182;2023-07-31T13:08:22;5.82;;;3.08;;
16743;SDS011;71724;-33.900;151.182;2023-07-31T13:10:50;4.78;;;1.77;;
16743;SDS011;71724;-33.900;151.182;2023-07-31T13:13:17;5.35;;;1.95;;
16743;SDS011;71724;-33.900;151.182;2023-07-31T13:15:47;4.03;;;1.40;;
16743;SDS011;71724;-33.900;151.182;2023-07-31T13:18:15;2.50;;;1.27;;
16743;SDS011;71724;-33.900;151.182;2023-07-31T13:20:42;3.13;;;1.20;;
16743;SDS011;71724;-33.900;151.182;2023-07-31T13:23:10;6.25;;;2.35;;
16743;SDS011;71724;-33.900;151.182;2023-07-31T13:25:37;3.35;;;1.27;;
16743;SDS011;71724;-33.900;151.182;2023-07-31T13:28:04;4.72;;;1.58;;
16743;SDS011;71724;-33.900;151.182;2023-07-31T13:30:32;2.67;;;1.50;;
16743;SDS011;71724;-33.900;151.182;2023-07-31T13:32:59;2.92;;;1.25;;
16743;SDS011;71724;-33.900;151.182;2023-07-31T13:35:27;1.75;;;1.02;;
16743;SDS011;71724;-33.900;151.182;2023-07-31T13:37:57;6.03;;;1.30;;
16743;SDS011;71724;-33.900;151.182;2023-07-31T13:40:24;2.08;;;1.15;;
16743;SDS011;71724;-33.900;151.182;2023-07-31T13:42:52;1.67;;;0.98;;
16743;SDS011;71724;-33.900;151.182;2023-07-31T13:45:20;2.80;;;1.40;;
16743;SDS011;71724;-33.900;151.182;2023-07-31T13:47:49;3.53;;;0.90;;
16743;SDS011;71724;-33.900;151.182;2023-07-31T13:50:17;2.63;;;1.05;;
16743;SDS011;71724;-33.900;151.182;2023-07-31T13:52:46;4.10;;;1.30;;
16743;SDS011;71724;-33.900;151.182;2023-07-31T13:55:14;2.33;;;1.27;;
16743;SDS011;71724;-33.900;151.182;2023-07-31T13:57:41;2.65;;;0.82;;
16743;SDS011;71724;-33.900;151.182;2023-07-31T14:00:08;3.17;;;1.20;;
16743;SDS011;71724;-33.900;151.182;2023-07-31T14:02:36;1.50;;;0.80;;
16743;SDS011;71724;-33.900;151.182;2023-07-31T14:05:04;2.42;;;1.23;;
16743;SDS011;71724;-33.900;151.182;2023-07-31T14:07:33;3.58;;;1.13;;
16743;SDS011;71724;-33.900;151.182;2023-07-31T14:10:01;3.95;;;1.45;;
16743;SDS011;71724;-33.900;151.182;2023-07-31T14:12:29;3.13;;;0.82;;
16743;SDS011;71724;-33.900;151.182;2023-07-31T14:14:57;2.28;;;1.10;;
16743;SDS011;71724;-33.900;151.182;2023-07-31T14:17:24;2.38;;;1.00;;
16743;SDS011;71724;-33.900;151.182;2023-07-31T14:19:51;1.95;;;0.90;;
16743;SDS011;71724;-33.900;151.182;2023-07-31T14:22:30;2.92;;;1.00;;
16743;SDS011;71724;-33.900;151.182;2023-07-31T14:24:59;3.33;;;1.02;;
16743;SDS011;71724;-33.900;151.182;2023-07-31T14:27:29;2.90;;;1.17;;
16743;SDS011;71724;-33.900;151.182;2023-07-31T14:29:56;3.45;;;1.42;;
16743;SDS011;71724;-33.900;151.182;2023-07-31T14:32:24;2.22;;;1.10;;
16743;SDS011;71724;-33.900;151.182;2023-07-31T14:34:51;2.35;;;1.00;;
16743;SDS011;71724;-33.900;151.182;2023-07-31T14:37:20;2.83;;;1.10;;
16743;SDS011;71724;-33.900;151.182;2023-07-31T14:39:47;2.03;;;0.90;;
16743;SDS011;71724;-33.900;151.182;2023-07-31T14:42:16;6.65;;;1.40;;
16743;SDS011;71724;-33.900;151.182;2023-07-31T14:44:44;1.10;;;0.75;;
16743;SDS011;71724;-33.900;151.182;2023-07-31T14:47:12;2.25;;;0.98;;
16743;SDS011;71724;-33.900;151.182;2023-07-31T14:49:40;4.88;;;1.10;;
16743;SDS011;71724;-33.900;151.182;2023-07-31T14:52:07;2.83;;;1.02;;
16743;SDS011;71724;-33.900;151.182;2023-07-31T14:54:35;1.95;;;0.90;;
16743;SDS011;71724;-33.900;151.182;2023-07-31T14:57:02;4.88;;;0.85;;